Nearby METAR Reports

 

KSQL - San Carlos Airpo, California, USA
Distance from station: N 0mi, 1km
Updated: Mon, 18-Jun-2018 11:47am PDT
Few Clouds
Few Clouds
 Wind from NNW
Wind: NNW 8 mph , 13 km/h
Temperature: 68°F , 20°C
Dew Point: 55°F , 13°C
Humidity: 64%
Barometer: 30.05 inHg , 1017.6 hPa
Clouds: Few Clouds
Visibility: 10 miles , 16 km
Cloud details: Few Clouds 3000 ft
2018/06/18 18:47 KSQL 181847Z 33007KT 10SM FEW030 20/13 A3005
KPAO - Palo Alto, California, USA
Distance from station: ESE 8mi, 13km
Updated: Mon, 18-Jun-2018 10:47am PDT
NOT Current
Few Clouds
Few Clouds
 Wind from N
Wind: N 8 mph , 13 km/h
Temperature: 72°F , 22°C
Dew Point: 57°F , 14°C
Humidity: 61%
Barometer: 30.06 inHg , 1017.9 hPa
Clouds: Few Clouds
Visibility: 10 miles , 16 km
Cloud details: Few Clouds 2500 ft
2018/06/18 17:47 KPAO 181747Z 35007KT 10SM FEW025 22/14 A3006
 
KSFO - San Francisco, California, USA
Distance from station: NW 10mi, 16km
Updated: Mon, 18-Jun-2018 11:56am PDT
Partly cloudy
Partly cloudy
 Wind from NW
Wind: NW 15 mph , 24 km/h
Temperature: 70°F , 21°C
Dew Point: 54°F , 12°C
Humidity: 57%
Barometer: 30.04 inHg , 1017.3 hPa
Clouds: Partly cloudy
Visibility: 10 miles , 16 km
Cloud details: Few Clouds 2000 ft
Partly cloudy 20000 ft
2018/06/18 18:56 KSFO 181856Z 32013KT 10SM FEW020 SCT200 21/12 A3004 RMK AO2 SLP173 T02060117
KHWD - Hayward, California, USA
Distance from station: NE 13mi, 21km
Updated: Mon, 18-Jun-2018 11:54am PDT
Clear
Clear
 Wind from W
Wind: W 8 mph , 13 km/h
Temperature: 70°F , 21°C
Dew Point: 54°F , 12°C
Humidity: 57%
Barometer: 30.05 inHg , 1017.6 hPa
Clouds: Clear
Visibility: 10 miles , 16 km
2018/06/18 18:54 KHWD 181854Z 27007KT 10SM CLR 21/12 A3005 RMK AO2 SLP185 T02060122
 
KNUQ - Moffett Nas/Mtn, California, USA
Distance from station: SE 13mi, 22km
Updated: Mon, 18-Jun-2018 11:56am PDT
Clear
Clear
 Wind from N
Wind: N 9 mph , 15 km/h
Temperature: 72°F , 22°C
Dew Point: 55°F , 13°C
Humidity: 57%
Barometer: 30.05 inHg , 1017.6 hPa
Clouds: Clear
Visibility: 10 miles , 16 km
2018/06/18 18:56 KNUQ 181856Z 36008KT 10SM CLR 22/13 A3005 RMK AO2 SLP178 T02170133
KHAF - Half Moon Bay, California, USA
Distance from station: W 14mi, 22km
Updated: Mon, 18-Jun-2018 11:55am PDT
Mostly cloudy
Mostly cloudy
 
Temperature: 59°F , 15°C
Dew Point: 54°F , 12°C
Humidity: 82%
Barometer: 30.08 inHg , 1018.6 hPa
Clouds: Mostly cloudy
Visibility: 9 miles , 14 km
Cloud details: Mostly cloudy 1400 ft
2018/06/18 18:55 KHAF 181855Z AUTO 9SM BKN014 15/12 A3008 RMK AO2
 
KOAK - Oakland, California, USA
Distance from station: N 14mi, 23km
Updated: Mon, 18-Jun-2018 11:53am PDT
Few Clouds
Few Clouds
 Wind from WNW
Wind: WNW 10 mph , 17 km/h
Temperature: 64°F , 18°C
Dew Point: 54°F , 12°C
Humidity: 68%
Barometer: 30.06 inHg , 1017.9 hPa
Clouds: Few Clouds
Visibility: 10 miles , 16 km
Cloud details: Few Clouds 1500 ft
Few Clouds 18000 ft
2018/06/18 18:53 KOAK 181853Z 30009KT 10SM FEW015 FEW180 18/12 A3006 RMK AO2 SLP179 T01780122
KSJC - San Jose, California, USA
Distance from station: ESE 21mi, 34km
Updated: Mon, 18-Jun-2018 11:53am PDT
Partly cloudy
Partly cloudy
 Wind from NW
Wind: NW 9 mph , 15 km/h
Temperature: 73°F , 23°C
Dew Point: 54°F , 12°C
Humidity: 50%
Barometer: 30.04 inHg , 1017.3 hPa
Clouds: Partly cloudy
Visibility: 10 miles , 16 km
Cloud details: Few Clouds 4600 ft
Partly cloudy 8000 ft
Partly cloudy 11000 ft
2018/06/18 18:53 KSJC 181853Z 31008KT 10SM FEW046 SCT080 SCT110 23/12 A3004 RMK AO2 SLP170 T02330122
 
KLVK - Livermore, California, USA
Distance from station: ENE 27mi, 43km
Updated: Mon, 18-Jun-2018 11:53am PDT
Clear
Clear
 Wind from NW
Wind: NW 9 mph , 15 km/h
Temperature: 75°F , 24°C
Dew Point: 59°F , 15°C
Humidity: 57%
Barometer: 30.02 inHg , 1016.6 hPa
Clouds: Clear
Visibility: 10 miles , 16 km
2018/06/18 18:53 KLVK 181853Z 31008KT 10SM CLR 24/15 A3002 RMK AO2 SLPNO T02390150
KRHV - San Jose/Reid, California, USA
Distance from station: ESE 27mi, 44km
Updated: Mon, 18-Jun-2018 11:47am PDT
Clear
Clear
 Wind from NNW
Wind: NNW 9 mph , 15 km/h
Temperature: 73°F , 23°C
Dew Point: 54°F , 12°C
Humidity: 50%
Barometer: 30.02 inHg , 1016.6 hPa
Clouds: Clear
Visibility: 10 miles , 16 km
2018/06/18 18:47 KRHV 181847Z 33008KT 10SM SKC 23/12 A3002
 
KCCR - Concord, California, USA
Distance from station: NNE 35mi, 57km
Updated: Mon, 18-Jun-2018 11:53am PDT
Clear
Clear
 Wind from varies
Wind: varies 7 mph , 11 km/h
Temperature: 75°F , 24°C
Dew Point: 54°F , 12°C
Humidity: 47%
Barometer: 30.03 inHg , 1016.9 hPa
Clouds: Clear
Visibility: 10 miles , 16 km
2018/06/18 18:53 KCCR 181853Z VRB06KT 10SM CLR 24/12 A3003 RMK AO2 SLP154 T02390117
KE16 - San Martin, California, USA
Distance from station: SE 46mi, 75km
Updated: Mon, 18-Jun-2018 11:55am PDT
Clear
Clear
 Wind from NW
Wind: NW 5 mph , 7 km/h
Temperature: 75°F , 24°C
Dew Point: 50°F , 10°C
Humidity: 41%
Barometer: 30.04 inHg , 1017.3 hPa
Clouds: Clear
Visibility: 10 miles , 16 km
2018/06/18 18:55 KE16 181855Z AUTO 32004KT 10SM CLR 24/10 A3004 RMK AO2
 
KDVO - Novato/Gnoss Fld, California, USA
Distance from station: NNW 47mi, 76km
Updated: Mon, 18-Jun-2018 11:55am PDT
Clear
Clear
 Wind from NE
Wind: NE 8 mph , 13 km/h
Temperature: 72°F , 22°C
Dew Point: 55°F , 13°C
Humidity: 57%
Barometer: 30.04 inHg , 1017.3 hPa
Clouds: Clear
Visibility: 10 miles , 16 km
2018/06/18 18:55 KDVO 181855Z AUTO 04007KT 10SM CLR 22/13 A3004 RMK AO2
KWVI - Watsonville, California, USA
Distance from station: SSE 47mi, 76km
Updated: Mon, 18-Jun-2018 11:53am PDT
Clear
Clear
 Wind from SW
Wind: SW 12 mph , 19 km/h
Temperature: 66°F , 19°C
Dew Point: 54°F , 12°C
Humidity: 64%
Barometer: 30.06 inHg , 1017.9 hPa
Clouds: Clear
Visibility: 9 miles , 14 km
2018/06/18 18:53 KWVI 181853Z AUTO 23010KT 9SM CLR 19/12 A3006 RMK AO2 SLP180 T01890122
 
KAPC - Napa, California, USA
Distance from station: N 48mi, 77km
Updated: Mon, 18-Jun-2018 11:54am PDT
Clear
Clear
 Wind from SSW
Wind: SSW 8 mph , 13 km/h
Temperature: 68°F , 20°C
Dew Point: 55°F , 13°C
Humidity: 64%
Barometer: 30.04 inHg , 1017.3 hPa
Clouds: Clear
Visibility: 10 miles , 16 km
2018/06/18 18:54 KAPC 181854Z 21007KT 10SM CLR 20/13 A3004 RMK AO2 SLP164 T02000128
KO69 - Petaluma, California, USA
Distance from station: NNW 54mi, 88km
Updated: Mon, 18-Jun-2018 11:55am PDT
Clear
Clear
 Wind from varies
Wind: varies 5 mph , 7 km/h
Temperature: 68°F , 20°C
Dew Point: 57°F , 14°C
Humidity: 69%
Barometer: 30.05 inHg , 1017.6 hPa
Clouds: Clear
Visibility: 9 miles , 14 km
2018/06/18 18:55 KO69 181855Z AUTO VRB04KT 9SM CLR 20/14 A3005 RMK A01
 
KSUU - Travis Afb/Fairf, California, USA
Distance from station: NNE 55mi, 89km
Updated: Mon, 18-Jun-2018 11:58am PDT
Clear
Clear
 Wind from SW
Wind: SW 13 mph , 20 km/h
Temperature: 75°F , 24°C
Dew Point: 54°F , 12°C
Humidity: 47%
Barometer: 30.00 inHg , 1015.9 hPa
Clouds: Clear
Visibility: 10 miles , 16 km
2018/06/18 18:58 KSUU 181858Z AUTO 23011KT 10SM CLR 24/12 A3000 RMK AO2 SLP165 T02390119 $
KCVH - Hollister Muni, California, USA
Distance from station: SE 62mi, 100km
Updated: Mon, 18-Jun-2018 11:55am PDT
Clear
Clear
 Wind from W
Wind: W 3 mph , 6 km/h
Temperature: 75°F , 24°C
Dew Point: 55°F , 13°C
Humidity: 50%
Barometer: 30.02 inHg , 1016.6 hPa
Clouds: Clear
Visibility: 10 miles , 16 km
2018/06/18 18:55 KCVH 181855Z AUTO 28003KT 10SM CLR 24/13 A3002 RMK A01
 
KSCK - Stockton, California, USA
Distance from station: ENE 62mi, 100km
Updated: Mon, 18-Jun-2018 11:55am PDT
Clear
Clear
 Wind from WNW
Wind: WNW 13 mph , 20 km/h
Temperature: 81°F , 27°C
Heat Index: 81°F , 27°C
Dew Point: 55°F , 13°C
Humidity: 42%
Barometer: 30.01 inHg , 1016.3 hPa
Clouds: Clear
Visibility: 10 miles , 16 km
2018/06/18 18:55 KSCK 181855Z 30011KT 10SM CLR 27/13 A3001 RMK AO2 SLP160 T02670128
KVCB - Vacaville, California, USA
Distance from station: NNE 62mi, 100km
Updated: Mon, 18-Jun-2018 11:53am PDT
Clear
Clear
 Wind from varies
Wind: varies 5 mph , 7 km/h
Temperature: 81°F , 27°C
Dew Point: 54°F , 12°C
Humidity: 39%
Barometer: 30.02 inHg , 1016.6 hPa
Clouds: Clear
Visibility: 10 miles , 16 km
2018/06/18 18:53 KVCB 181853Z AUTO VRB04KT 10SM CLR 27/12 A3002 RMK AO2 SLP162 T02720122